createdAt,value
2023-04-16T00:14:41.914Z,30
2023-04-16T00:43:40.810Z,28
2023-04-16T01:12:50.698Z,30
2023-04-16T01:41:49.259Z,29
2023-04-16T02:10:50.920Z,29
2023-04-16T02:39:52.349Z,30
2023-04-16T03:08:58.594Z,29
2023-04-16T03:37:51.858Z,30
2023-04-16T04:06:54.282Z,30
2023-04-16T04:35:52.613Z,29
2023-04-16T05:05:10.214Z,25
2023-04-16T05:34:02.794Z,24
2023-04-16T06:03:00.489Z,22
2023-04-16T06:31:34.013Z,23
2023-04-16T07:00:22.194Z,24
2023-04-16T07:29:20.018Z,28
2023-04-16T07:58:17.061Z,24
2023-04-16T08:27:19.509Z,26
2023-04-16T08:55:48.785Z,25
2023-04-16T09:24:43.874Z,26
2023-04-16T09:53:44.871Z,24
2023-04-16T10:22:07.917Z,24
2023-04-16T10:50:27.890Z,24
2023-04-16T11:18:37.491Z,23
2023-04-16T11:46:55.837Z,23
2023-04-16T12:15:22.380Z,23
2023-04-16T12:43:43.140Z,22
2023-04-16T13:11:56.278Z,23
2023-04-16T13:40:12.759Z,22
2023-04-16T14:08:34.937Z,21
2023-04-16T14:36:56.413Z,22
2023-04-16T15:05:15.525Z,25
2023-04-16T15:33:36.355Z,21
2023-04-16T16:01:56.370Z,20
2023-04-16T16:30:07.785Z,23
2023-04-16T16:58:28.727Z,23
2023-04-16T17:26:49.872Z,23
2023-04-16T17:55:04.466Z,25
2023-04-16T18:23:22.958Z,26
2023-04-16T18:51:46.696Z,27
2023-04-16T19:19:59.725Z,27
2023-04-16T19:48:13.514Z,30
2023-04-16T20:16:37.997Z,31
2023-04-16T20:45:00.606Z,34
2023-04-16T21:13:23.653Z,36
2023-04-16T21:41:49.380Z,35
2023-04-16T22:10:00.936Z,40
2023-04-16T22:38:20.185Z,41
2023-04-16T23:06:39.629Z,41
2023-04-16T23:34:59.250Z,42
